Terminal Aerodrome Forecast
Issued by NWS Mt. Holly, NJ

Home | Current Version | Previous Version | Text Only | Print | Product List | Glossary On
Versions: 1 2 3 4 5 6 7 8 9 10 11 12 13 14 15 16 17 18
909
FTUS41 KPHI 211140
TAFTTN
TAF
KTTN 211140Z 2112/2212 19005KT P6SM SCT250
     FM211400 21010G23KT P6SM SCT250
     FM212100 21008KT P6SM SCT250
     FM220500 20006KT P6SM BKN100
     FM220800 23005KT P6SM OVC035=

USA.gov is the U.S. government's official web portal to all federal, state and local government web resources and services.